Time;durP1;ratioP1;P1;durP2;ratioP2;P2;SDS_P1;SDS_P2;PMS_P1;PMS_P2;Temp;Humidity;BMP_temperature;BMP_pressure;BME280_temperature;BME280_humidity;BME280_pressure;Samples;Min_cycle;Max_cycle;Signal;HPM_P1;HPM_P2
2023/03/16 00:03:20;;;;;;;5.27;1.87;;;;;;;0.02;47.32;100874.47;20836846;28;20232;-84
2023/03/16 00:13:23;;;;;;;4.30;2.20;;;;;;;0.65;45.26;100865.44;20903530;28;20512;-84
2023/03/16 00:23:26;;;;;;;6.07;2.47;;;;;;;0.69;45.73;100860.22;20885015;28;20443;-83
2023/03/16 00:33:28;;;;;;;4.97;1.90;;;;;;;0.66;46.01;100849.63;20918954;28;20192;-87
2023/03/16 00:43:39;;;;;;;4.13;2.13;;;;;;;1.22;44.88;100856.53;20904064;28;20219;-87
2023/03/16 00:53:44;;;;;;;4.10;2.27;;;;;;;0.11;46.47;100850.72;20887457;28;20257;-84
2023/03/16 01:03:46;;;;;;;4.67;1.77;;;;;;;0.61;46.01;100857.91;20860421;28;20232;-86
2023/03/16 01:13:49;;;;;;;5.73;2.47;;;;;;;0.47;46.01;100876.13;20885824;28;20215;-87
2023/03/16 01:23:52;;;;;;;4.97;1.90;;;;;;;0.39;46.10;100860.75;20895106;28;20223;-87
2023/03/16 01:33:54;;;;;;;5.40;1.90;;;;;;;0.25;45.90;100848.38;20884116;28;20184;-87
2023/03/16 01:44:00;;;;;;;3.23;1.80;;;;;;;0.34;46.52;100821.00;20874395;28;20245;-84
2023/03/16 01:54:16;;;;;;;4.03;1.60;;;;;;;0.50;46.09;100800.56;20916444;28;20508;-86
2023/03/16 02:04:25;;;;;;;3.37;1.40;;;;;;;0.24;46.72;100803.09;20926102;28;20284;-86
2023/03/16 02:14:32;;;;;;;3.07;1.60;;;;;;;0.51;45.62;100786.41;20898029;28;20220;-85
2023/03/16 02:24:36;;;;;;;4.27;1.50;;;;;;;0.51;45.54;100768.91;20915436;28;20277;-85
2023/03/16 02:34:40;;;;;;;2.80;1.17;;;;;;;0.31;45.24;100753.75;20899288;28;20188;-83
2023/03/16 02:44:46;;;;;;;3.50;1.23;;;;;;;0.28;44.96;100748.72;20897735;28;20211;-88
2023/03/16 02:54:48;;;;;;;1.90;1.20;;;;;;;0.70;43.13;100744.34;20913224;28;20649;-83
2023/03/16 03:04:53;;;;;;;1.27;1.00;;;;;;;0.24;44.02;100736.47;20927162;28;20220;-87
2023/03/16 03:14:57;;;;;;;2.87;0.83;;;;;;;0.57;42.97;100724.25;20878137;28;20505;-85
2023/03/16 03:25:01;;;;;;;2.93;1.03;;;;;;;0.65;42.83;100720.97;20895399;28;20624;-84
2023/03/16 03:35:06;;;;;;;2.33;0.73;;;;;;;0.74;43.04;100712.97;20922482;28;20188;-86
2023/03/16 03:45:11;;;;;;;1.70;0.70;;;;;;;0.84;43.66;100713.06;20892297;28;20208;-83
2023/03/16 03:55:14;;;;;;;3.10;1.00;;;;;;;0.75;42.93;100706.31;20875347;28;20249;-83
2023/03/16 04:05:17;;;;;;;1.60;0.87;;;;;;;0.55;43.17;100697.84;20887523;28;20216;-83
2023/03/16 04:15:21;;;;;;;2.57;0.80;;;;;;;0.80;43.18;100699.97;20905584;28;20234;-82
2023/03/16 04:25:37;;;;;;;1.93;0.80;;;;;;;0.78;42.67;100683.53;20906603;28;20216;-82
2023/03/16 04:35:40;;;;;;;1.80;0.70;;;;;;;0.86;42.79;100665.53;20880775;28;20249;-82
2023/03/16 04:45:43;;;;;;;0.80;0.43;;;;;;;1.06;42.22;100654.53;20901678;28;20231;-83
2023/03/16 04:55:46;;;;;;;1.83;0.63;;;;;;;1.07;42.69;100650.63;20858514;28;20565;-81
2023/03/16 05:05:49;;;;;;;1.80;0.70;;;;;;;0.87;43.65;100651.34;20866986;28;20212;-81
2023/03/16 05:15:52;;;;;;;1.17;0.63;;;;;;;0.95;43.63;100642.53;20875601;28;20207;-85
2023/03/16 05:26:06;;;;;;;2.60;1.20;;;;;;;1.03;43.65;100633.66;20878804;28;20223;-85
2023/03/16 05:36:11;;;;;;;2.53;1.50;;;;;;;0.93;44.61;100627.22;20859621;28;20199;-88
2023/03/16 05:46:16;;;;;;;4.67;2.40;;;;;;;0.91;45.23;100630.25;20868412;28;20265;-83
2023/03/16 05:56:24;;;;;;;8.10;2.67;;;;;;;1.31;43.88;100637.13;20861644;28;20663;-82
2023/03/16 06:06:27;;;;;;;3.17;2.13;;;;;;;1.50;43.39;100651.38;20846258;28;20568;-82
2023/03/16 06:16:36;;;;;;;3.53;2.47;;;;;;;1.81;43.19;100655.06;20781144;28;20221;-83
2023/03/16 06:26:40;;;;;;;2.60;2.20;;;;;;;1.61;43.47;100634.44;20809276;28;20220;-87
2023/03/16 06:36:46;;;;;;;6.23;5.73;;;;;;;1.78;43.37;100644.47;20828215;28;20189;-82
2023/03/16 06:46:49;;;;;;;3.07;2.00;;;;;;;1.85;43.78;100640.31;20798896;28;20209;-84
2023/03/16 06:56:52;;;;;;;4.73;1.93;;;;;;;1.64;43.37;100633.91;20789823;28;20231;-85
2023/03/16 07:06:56;;;;;;;2.60;1.80;;;;;;;1.97;42.30;100640.06;20878276;28;20227;-83
2023/03/16 07:16:58;;;;;;;4.83;1.63;;;;;;;2.13;42.52;100647.31;20928527;28;20249;-83
2023/03/16 07:27:00;;;;;;;8.03;4.00;;;;;;;1.84;43.26;100657.28;20904375;28;20242;-82
2023/03/16 07:37:07;;;;;;;2.67;1.37;;;;;;;2.15;42.26;100649.81;20880373;28;20260;-83
2023/03/16 07:47:11;;;;;;;2.70;1.40;;;;;;;2.10;42.22;100656.22;20924321;28;20212;-83
2023/03/16 07:57:14;;;;;;;2.97;1.73;;;;;;;2.58;41.57;100652.00;20974708;28;20596;-84
2023/03/16 08:07:17;;;;;;;1.97;1.30;;;;;;;2.87;40.52;100652.25;20888517;28;20285;-83
2023/03/16 08:17:27;;;;;;;1.20;1.10;;;;;;;2.76;40.34;100634.72;20850338;28;20262;-83
2023/03/16 08:27:31;;;;;;;2.27;1.40;;;;;;;2.97;38.93;100632.69;20880770;28;20220;-84
2023/03/16 08:37:40;;;;;;;1.97;1.43;;;;;;;2.94;39.24;100630.50;20871288;28;20226;-83
2023/03/16 08:47:42;;;;;;;1.77;0.97;;;;;;;2.98;38.61;100642.72;20897706;28;20358;-85
2023/03/16 08:57:47;;;;;;;3.40;1.40;;;;;;;4.14;37.45;100634.81;20900832;28;20188;-85
2023/03/16 09:07:50;;;;;;;3.00;1.20;;;;;;;4.10;37.58;100636.53;20914210;28;20255;-83
2023/03/16 09:17:53;;;;;;;1.30;0.80;;;;;;;3.50;38.60;100649.75;20841209;28;20560;-86
2023/03/16 09:27:55;;;;;;;2.93;1.13;;;;;;;3.31;38.73;100654.34;20899098;28;20216;-82
2023/03/16 09:37:57;;;;;;;2.03;1.10;;;;;;;3.71;38.30;100654.13;20881960;28;20184;-85
2023/03/16 09:48:09;;;;;;;3.47;2.83;;;;;;;4.20;37.41;100648.50;20903600;28;20211;-85
2023/03/16 09:58:20;;;;;;;1.50;1.30;;;;;;;4.37;37.69;100631.28;20885193;28;20188;-86
2023/03/16 10:08:24;;;;;;;2.20;1.30;;;;;;;4.44;37.30;100642.97;20911095;28;20260;-86
2023/03/16 10:18:34;;;;;;;1.70;1.17;;;;;;;5.23;36.39;100630.34;20913511;28;20633;-87
2023/03/16 10:28:37;;;;;;;2.83;1.10;;;;;;;4.03;38.33;100636.00;20881868;28;20567;-83
2023/03/16 10:38:47;;;;;;;3.63;1.13;;;;;;;4.56;37.53;100626.63;20900239;28;20202;-86
2023/03/16 10:49:00;;;;;;;1.70;1.13;;;;;;;5.01;37.37;100629.22;20898272;28;20220;-85
2023/03/16 10:59:20;;;;;;;1.57;1.40;;;;;;;4.75;37.91;100614.69;20899296;28;20180;-85
2023/03/16 11:09:33;;;;;;;2.57;1.53;;;;;;;5.11;37.76;100587.97;20902902;28;20219;-87
2023/03/16 11:19:40;;;;;;;1.63;1.20;;;;;;;4.81;38.55;100574.34;20909540;28;20238;-84
2023/03/16 11:29:59;;;;;;;2.73;1.43;;;;;;;5.55;37.50;100550.41;20893446;28;20227;-85
2023/03/16 11:40:15;;;;;;;2.20;0.90;;;;;;;5.18;38.29;100538.03;20886404;28;20188;-86
2023/03/16 11:50:24;;;;;;;2.90;1.00;;;;;;;5.28;38.34;100517.50;20893817;28;20619;-86
2023/03/16 12:00:43;;;;;;;3.23;1.20;;;;;;;6.06;37.16;100502.75;20908304;28;20187;-85
2023/03/16 12:11:03;;;;;;;2.70;0.77;;;;;;;5.89;36.63;100494.97;20915572;28;20286;-85
2023/03/16 12:21:12;;;;;;;2.20;0.70;;;;;;;5.93;36.50;100456.75;20894896;28;20189;-86
2023/03/16 12:31:42;;;;;;;1.90;0.50;;;;;;;6.49;35.01;100449.22;20859636;28;20195;-85
2023/03/16 12:41:54;;;;;;;2.13;0.67;;;;;;;6.67;35.06;100423.09;20879996;28;20661;-85
2023/03/16 12:52:04;;;;;;;0.83;0.47;;;;;;;6.75;34.81;100404.66;20901789;28;20543;-85
2023/03/16 13:02:16;;;;;;;2.78;0.80;;;;;;;6.86;34.31;100394.88;20890916;28;20509;-86
2023/03/16 13:12:31;;;;;;;1.33;0.47;;;;;;;7.13;34.22;100366.69;20887985;28;20211;-86
2023/03/16 13:22:46;;;;;;;1.63;0.57;;;;;;;6.68;34.79;100355.44;20916480;28;20567;-85
2023/03/16 13:32:53;;;;;;;2.43;0.50;;;;;;;6.96;34.36;100335.72;20895083;28;20246;-84
2023/03/16 13:42:56;;;;;;;3.40;1.07;;;;;;;8.11;33.50;100333.75;20903658;28;20215;-86
2023/03/16 13:53:01;;;;;;;1.23;0.57;;;;;;;8.21;32.52;100314.91;20891094;28;20196;-85
2023/03/16 14:03:15;;;;;;;2.15;0.70;;;;;;;8.38;32.48;100292.44;20882358;28;20249;-85
2023/03/16 14:13:32;;;;;;;1.70;0.70;;;;;;;7.70;33.54;100265.81;20898228;28;20249;-85
2023/03/16 14:23:40;;;;;;;1.52;0.63;;;;;;;7.45;34.13;100242.03;20916151;28;20215;-86
2023/03/16 14:33:44;;;;;;;2.78;0.95;;;;;;;7.69;33.13;100222.81;20885933;28;20200;-84
2023/03/16 14:43:53;;;;;;;0.70;0.50;;;;;;;7.39;34.63;100213.25;20889763;28;20239;-82
2023/03/16 14:53:55;;;;;;;1.27;0.70;;;;;;;7.55;34.72;100193.16;20903021;28;20203;-82
2023/03/16 15:03:57;;;;;;;0.60;0.60;;;;;;;7.57;34.76;100182.44;20862916;28;20227;-87
2023/03/16 15:14:13;;;;;;;1.53;0.43;;;;;;;7.92;34.21;100169.31;20869626;28;20234;-86
2023/03/16 15:24:16;;;;;;;1.33;0.75;;;;;;;7.95;34.14;100161.06;20869391;28;20248;-83
2023/03/16 15:34:19;;;;;;;2.17;0.80;;;;;;;8.10;34.65;100143.72;20857637;28;20201;-85
2023/03/16 15:44:21;;;;;;;3.63;1.17;;;;;;;8.18;34.65;100138.41;20901010;28;20552;-85
2023/03/16 15:54:24;;;;;;;3.87;0.87;;;;;;;7.94;34.40;100148.16;20874435;28;20196;-88
2023/03/16 16:04:26;;;;;;;1.90;0.70;;;;;;;8.58;33.68;100120.16;20865477;28;20228;-89
2023/03/16 16:14:29;;;;;;;2.60;1.20;;;;;;;8.67;33.30;100109.72;20880157;28;20274;-88
2023/03/16 16:24:32;;;;;;;3.47;0.70;;;;;;;8.24;33.96;100094.91;20880027;28;20228;-89
2023/03/16 16:34:35;;;;;;;2.13;0.57;;;;;;;7.92;34.31;100085.00;20908825;28;20251;-89
2023/03/16 16:44:41;;;;;;;3.20;0.80;;;;;;;7.65;34.89;100086.13;20901313;28;20208;-86
2023/03/16 16:54:47;;;;;;;1.97;0.90;;;;;;;7.65;34.82;100092.56;20898510;28;20188;-86
2023/03/16 17:04:49;;;;;;;2.70;1.53;;;;;;;7.26;34.86;100115.91;20873084;28;20534;-89
2023/03/16 17:14:52;;;;;;;2.77;1.93;;;;;;;7.24;35.03;100109.78;20798370;28;20564;-86
2023/03/16 17:24:55;;;;;;;2.90;0.90;;;;;;;6.77;35.61;100102.19;20801251;28;20211;-86
2023/03/16 17:34:58;;;;;;;2.87;1.20;;;;;;;6.63;36.02;100100.28;20822816;28;20196;-88
2023/03/16 17:45:03;;;;;;;2.20;0.80;;;;;;;6.37;36.42;100102.91;20800084;28;20243;-88
2023/03/16 17:55:06;;;;;;;1.83;0.60;;;;;;;6.80;35.71;100107.16;20829868;28;20242;-90
2023/03/16 18:05:18;;;;;;;4.30;1.40;;;;;;;6.78;35.75;100106.63;20818214;28;20223;-89
2023/03/16 18:15:21;;;;;;;0.80;0.45;;;;;;;6.48;36.06;100102.63;20862938;28;20215;-86
2023/03/16 18:25:33;;;;;;;1.10;0.77;;;;;;;6.17;36.71;100109.03;20837336;28;20247;-88
2023/03/16 18:35:36;;;;;;;0.80;0.50;;;;;;;6.00;37.49;100108.91;20884561;28;20180;-87
2023/03/16 18:45:40;;;;;;;0.90;0.60;;;;;;;5.99;37.57;100099.66;20855294;28;20224;-86
2023/03/16 18:55:45;;;;;;;2.03;0.93;;;;;;;5.85;38.63;100098.88;20838067;28;20200;-87
2023/03/16 19:05:47;;;;;;;1.65;0.70;;;;;;;5.77;38.96;100088.44;20881330;28;20236;-87
2023/03/16 19:15:51;;;;;;;1.30;0.90;;;;;;;5.90;39.22;100093.16;20860470;28;20282;-87
2023/03/16 19:25:54;;;;;;;1.70;0.93;;;;;;;6.09;39.42;100078.13;20896933;28;20250;-85
2023/03/16 19:35:57;;;;;;;3.70;1.20;;;;;;;5.82;40.07;100074.28;20876510;28;20218;-86
2023/03/16 19:46:00;;;;;;;1.33;1.20;;;;;;;5.60;40.18;100071.47;20880121;28;20215;-83
2023/03/16 19:56:02;;;;;;;1.43;1.00;;;;;;;5.64;40.43;100072.50;20875262;28;20204;-86
2023/03/16 20:06:07;;;;;;;2.03;1.30;;;;;;;5.75;40.58;100073.91;20885130;28;20304;-84
2023/03/16 20:16:46;;;;;;;2.43;1.20;;;;;;;5.71;40.34;100067.28;20891249;28;20212;-83
2023/03/16 20:26:50;;;;;;;2.43;1.30;;;;;;;5.63;40.86;100054.88;20812031;28;20219;-84
2023/03/16 20:36:54;;;;;;;2.03;1.30;;;;;;;5.45;41.76;100035.44;20880371;28;20199;-86
2023/03/16 20:46:57;;;;;;;3.20;1.70;;;;;;;5.43;41.42;100015.31;20905069;28;21665;-85
2023/03/16 20:57:00;;;;;;;4.37;1.37;;;;;;;5.67;40.66;100009.44;20856302;28;20599;-85
2023/03/16 21:07:05;;;;;;;3.37;1.70;;;;;;;5.39;41.16;99986.28;20882102;28;20220;-86
2023/03/16 21:17:20;;;;;;;3.70;1.60;;;;;;;5.67;40.87;99984.25;20889728;28;20206;-83
2023/03/16 21:27:30;;;;;;;3.50;1.30;;;;;;;5.48;41.25;99973.22;20880751;28;20216;-83
2023/03/16 21:37:32;;;;;;;3.07;1.30;;;;;;;5.59;40.51;99947.44;20893979;28;20233;-84
2023/03/16 21:47:34;;;;;;;1.53;1.20;;;;;;;5.52;40.49;99943.44;20881999;28;20273;-84
2023/03/16 21:57:37;;;;;;;2.33;1.27;;;;;;;5.60;40.10;99931.47;20900391;28;20246;-85
2023/03/16 22:07:40;;;;;;;1.80;1.00;;;;;;;5.61;39.50;99921.91;20891063;28;20265;-85
2023/03/16 22:17:42;;;;;;;1.43;1.00;;;;;;;5.60;39.91;99921.09;20873075;28;20702;-84
2023/03/16 22:27:45;;;;;;;2.73;1.53;;;;;;;5.54;39.34;99910.34;20901887;28;20500;-84
2023/03/16 22:37:47;;;;;;;1.83;1.10;;;;;;;6.05;38.94;99886.59;20917413;28;20218;-82
2023/03/16 22:47:51;;;;;;;2.03;0.90;;;;;;;6.21;38.35;99884.97;20929895;28;20689;-84
2023/03/16 22:58:01;;;;;;;1.37;0.93;;;;;;;5.96;38.62;99892.97;20897323;28;20192;-85
2023/03/16 23:08:11;;;;;;;1.63;0.60;;;;;;;5.74;38.69;99853.81;20900957;28;20230;-86
2023/03/16 23:18:22;;;;;;;3.03;1.23;;;;;;;6.23;37.93;99874.28;20916144;28;20215;-85
2023/03/16 23:28:24;;;;;;;4.13;0.80;;;;;;;6.37;38.00;99856.19;20920728;28;20219;-86
2023/03/16 23:38:27;;;;;;;1.23;0.70;;;;;;;5.97;38.83;99863.78;20921912;28;20623;-83
2023/03/16 23:48:30;;;;;;;2.97;0.80;;;;;;;6.10;38.07;99858.41;20902882;28;20289;-84
2023/03/16 23:58:32;;;;;;;1.73;1.00;;;;;;;6.14;38.28;99839.78;20931478;28;20592;-84
